Sterling, CO (80751)

6:42 AM MST on December 26, 2014 (GMT -0700)
Charmony | Change Station
CLOSE
Current Station
Personal Weather Station
Location: Sterling, CO
Elevation: 3930 ft
Nearby Weather Stations

Elev 3930 ft 40.64 °N, 103.20 °W | Updated 9 minutes ago

Snow
Snow
18.3 °F
Feels Like 9 °F
N
6.8
Wind Variable Wind from NE

Today
High -- | Low -- °F
--% Chance of Precip.
Yesterday
High -- | Low -- °F
Precip. -- in
7:15 AM 4:31 PM
Waxing Crescent, 26% visible
Pressure 29.91 in
Visibility 6.0 miles
Clouds Mostly Cloudy 800 ft
Overcast 1400 ft
Windchill 9 °F
Dew Point 16 °F
Humidity 90%
Rainfall 0.00 in
Snow Depth Not available.
UV 0 out of 12
Pollen .10 out of 12
Air Quality Not available.
Flu Activity Not available.
SPECI KAKO 261303Z AUTO 02013KT 6SM -SN BR BKN008 OVC014 M08/M09 A2991 RMK AO2 P0000 T10781089

More Conditions Fewer Conditions

Pressure 29.91 in
Visibility 6.0 miles
Clouds Mostly Cloudy 800 ft
Overcast 1400 ft
Windchill 9 °F
Dew Point 16 °F
Humidity 90%
Rainfall 0.00 in
Snow Depth Not available.
UV 0 out of 12
Pollen .10 out of 12
Air Quality Not available.
Flu Activity Not available.
SPECI KAKO 261303Z AUTO 02013KT 6SM -SN BR BKN008 OVC014 M08/M09 A2991 RMK AO2 P0000 T10781089

More Conditions Fewer Conditions

10-Day Weather Forecast

Almanac

Astronomy

Dec. 26, 2014 Rise Set
Actual Time
Civil Twilight
Nautical Twilight
Astronomical Twilight
Moon
Length of Visible Light
Length of Day
Tomorrow will be .
, % of the Moon is Illuminated

Today's Extremes

State Highs State Lows

Community

WunderPhotos

Upload Photos

1,780,593 photos uploaded!

WunderBlogs® & News

Nearby

Air Quality

  Air Quality AQ Index Pollutant
Not available.

Snow Depth

Station Depth Elevation

Earthquake Activity

City Distance Mag. Time & Date
Minimum magnitude displayed is 2.5.

Coastal Water Temperatures

Place Temperature

Nearby Weather Stations